sensor_id;sensor_type;location;lat;lon;timestamp;pressure;altitude;pressure_sealevel;temperature;humidity
11415;BME280;5763;42.714;23.244;2023-01-26T00:00:47;94995.69;;;3.28;65.61
11415;BME280;5763;42.714;23.244;2023-01-26T00:03:14;95009.97;;;3.32;65.55
11415;BME280;5763;42.714;23.244;2023-01-26T00:05:41;95015.00;;;3.34;65.15
11415;BME280;5763;42.714;23.244;2023-01-26T00:08:08;95000.69;;;3.33;65.64
11415;BME280;5763;42.714;23.244;2023-01-26T00:10:35;94994.19;;;3.24;66.08
11415;BME280;5763;42.714;23.244;2023-01-26T00:13:04;95008.13;;;3.19;66.37
11415;BME280;5763;42.714;23.244;2023-01-26T00:15:32;95022.38;;;3.19;66.67
11415;BME280;5763;42.714;23.244;2023-01-26T00:17:59;95014.25;;;3.26;66.58
11415;BME280;5763;42.714;23.244;2023-01-26T00:20:26;95023.84;;;3.34;66.25
11415;BME280;5763;42.714;23.244;2023-01-26T00:22:53;95023.41;;;3.43;66.01
11415;BME280;5763;42.714;23.244;2023-01-26T00:25:20;95020.78;;;3.32;66.27
11415;BME280;5763;42.714;23.244;2023-01-26T00:27:47;94999.91;;;3.36;66.50
11415;BME280;5763;42.714;23.244;2023-01-26T00:30:16;94998.75;;;3.34;65.92
11415;BME280;5763;42.714;23.244;2023-01-26T00:32:43;94996.09;;;3.30;66.21
11415;BME280;5763;42.714;23.244;2023-01-26T00:35:10;94986.78;;;3.35;66.20
11415;BME280;5763;42.714;23.244;2023-01-26T00:37:37;94986.06;;;3.27;66.24
11415;BME280;5763;42.714;23.244;2023-01-26T00:40:07;94985.28;;;3.23;65.92
11415;BME280;5763;42.714;23.244;2023-01-26T00:42:34;94968.38;;;3.12;65.67
11415;BME280;5763;42.714;23.244;2023-01-26T00:45:01;94979.88;;;3.23;65.67
11415;BME280;5763;42.714;23.244;2023-01-26T00:47:29;94974.13;;;3.14;65.77
11415;BME280;5763;42.714;23.244;2023-01-26T00:49:56;94969.97;;;3.03;65.79
11415;BME280;5763;42.714;23.244;2023-01-26T00:52:23;94970.38;;;3.01;66.06
11415;BME280;5763;42.714;23.244;2023-01-26T00:54:49;94976.47;;;3.12;65.60
11415;BME280;5763;42.714;23.244;2023-01-26T00:57:16;94977.69;;;3.08;65.99
11415;BME280;5763;42.714;23.244;2023-01-26T00:59:43;94972.25;;;3.04;65.67
11415;BME280;5763;42.714;23.244;2023-01-26T01:02:10;94950.69;;;2.97;65.88
11415;BME280;5763;42.714;23.244;2023-01-26T01:04:38;94962.31;;;2.94;65.85
11415;BME280;5763;42.714;23.244;2023-01-26T01:07:04;94946.13;;;2.84;66.17
11415;BME280;5763;42.714;23.244;2023-01-26T01:09:31;94958.81;;;2.94;65.80
11415;BME280;5763;42.714;23.244;2023-01-26T01:11:58;94961.91;;;2.92;65.91
11415;BME280;5763;42.714;23.244;2023-01-26T01:14:25;94962.34;;;2.84;66.42
11415;BME280;5763;42.714;23.244;2023-01-26T01:16:51;94959.28;;;2.82;66.33
11415;BME280;5763;42.714;23.244;2023-01-26T01:19:18;94955.38;;;2.90;66.30
11415;BME280;5763;42.714;23.244;2023-01-26T01:21:46;94950.38;;;2.85;66.31
11415;BME280;5763;42.714;23.244;2023-01-26T01:24:13;94966.19;;;2.86;66.36
11415;BME280;5763;42.714;23.244;2023-01-26T01:26:40;94954.63;;;2.82;66.10
11415;BME280;5763;42.714;23.244;2023-01-26T01:29:08;94946.47;;;2.96;65.79
11415;BME280;5763;42.714;23.244;2023-01-26T01:31:37;94939.47;;;3.02;65.12
11415;BME280;5763;42.714;23.244;2023-01-26T01:34:05;94937.94;;;3.01;65.46
11415;BME280;5763;42.714;23.244;2023-01-26T01:36:32;94934.53;;;2.90;65.04
11415;BME280;5763;42.714;23.244;2023-01-26T01:39:00;94949.16;;;2.96;64.79
11415;BME280;5763;42.714;23.244;2023-01-26T01:41:27;94933.72;;;2.93;65.32
11415;BME280;5763;42.714;23.244;2023-01-26T01:44:13;94950.75;;;2.90;65.38
11415;BME280;5763;42.714;23.244;2023-01-26T01:46:44;94948.72;;;3.05;64.49
11415;BME280;5763;42.714;23.244;2023-01-26T01:49:17;94936.41;;;2.93;64.74
11415;BME280;5763;42.714;23.244;2023-01-26T01:51:48;94932.59;;;2.94;64.71
11415;BME280;5763;42.714;23.244;2023-01-26T01:54:22;94934.13;;;2.92;64.80
11415;BME280;5763;42.714;23.244;2023-01-26T01:56:56;94932.56;;;2.91;64.92
11415;BME280;5763;42.714;23.244;2023-01-26T01:59:24;94929.81;;;3.01;64.30
11415;BME280;5763;42.714;23.244;2023-01-26T02:01:51;94936.09;;;2.88;64.13
11415;BME280;5763;42.714;23.244;2023-01-26T02:04:20;94941.47;;;2.91;64.69
11415;BME280;5763;42.714;23.244;2023-01-26T02:06:49;94922.22;;;2.79;64.49
11415;BME280;5763;42.714;23.244;2023-01-26T02:09:19;94925.00;;;2.65;64.74
11415;BME280;5763;42.714;23.244;2023-01-26T02:12:06;94917.69;;;2.58;64.83
11415;BME280;5763;42.714;23.244;2023-01-26T02:14:35;94907.72;;;2.48;65.14
11415;BME280;5763;42.714;23.244;2023-01-26T02:17:02;94906.19;;;2.44;65.22
11415;BME280;5763;42.714;23.244;2023-01-26T02:19:34;94896.56;;;2.43;65.58
11415;BME280;5763;42.714;23.244;2023-01-26T02:22:09;94898.41;;;2.56;65.05
11415;BME280;5763;42.714;23.244;2023-01-26T02:24:40;94889.97;;;2.47;64.62
11415;BME280;5763;42.714;23.244;2023-01-26T02:27:08;94897.69;;;2.45;64.64
11415;BME280;5763;42.714;23.244;2023-01-26T02:29:35;94889.59;;;2.45;64.77
11415;BME280;5763;42.714;23.244;2023-01-26T02:32:02;94867.19;;;2.52;64.74
11415;BME280;5763;42.714;23.244;2023-01-26T02:34:28;94873.75;;;2.54;64.56
11415;BME280;5763;42.714;23.244;2023-01-26T02:36:56;94855.66;;;2.48;64.54
11415;BME280;5763;42.714;23.244;2023-01-26T02:39:37;94882.16;;;2.70;64.39
11415;BME280;5763;42.714;23.244;2023-01-26T02:42:06;94868.25;;;2.72;64.12
11415;BME280;5763;42.714;23.244;2023-01-26T02:44:52;94862.84;;;2.68;64.35
11415;BME280;5763;42.714;23.244;2023-01-26T02:47:19;94865.88;;;2.77;64.19
11415;BME280;5763;42.714;23.244;2023-01-26T02:49:46;94863.94;;;2.81;63.86
11415;BME280;5763;42.714;23.244;2023-01-26T02:52:12;94858.19;;;2.72;64.00
11415;BME280;5763;42.714;23.244;2023-01-26T02:54:39;94855.56;;;2.58;63.89
11415;BME280;5763;42.714;23.244;2023-01-26T02:57:23;94858.28;;;2.58;64.26
11415;BME280;5763;42.714;23.244;2023-01-26T02:59:51;94855.22;;;2.53;64.45
11415;BME280;5763;42.714;23.244;2023-01-26T03:02:19;94846.31;;;2.59;64.22
11415;BME280;5763;42.714;23.244;2023-01-26T03:04:45;94852.91;;;2.55;64.72
11415;BME280;5763;42.714;23.244;2023-01-26T03:07:12;94837.44;;;2.59;64.64
11415;BME280;5763;42.714;23.244;2023-01-26T03:09:39;94842.16;;;2.48;65.15
11415;BME280;5763;42.714;23.244;2023-01-26T03:12:06;94835.97;;;2.47;65.17
11415;BME280;5763;42.714;23.244;2023-01-26T03:14:32;94835.56;;;2.56;65.12
11415;BME280;5763;42.714;23.244;2023-01-26T03:17:00;94824.78;;;2.49;65.00
11415;BME280;5763;42.714;23.244;2023-01-26T03:19:27;94829.41;;;2.45;65.41
11415;BME280;5763;42.714;23.244;2023-01-26T03:22:11;94817.47;;;2.46;65.51
11415;BME280;5763;42.714;23.244;2023-01-26T03:24:55;94817.84;;;2.48;65.35
11415;BME280;5763;42.714;23.244;2023-01-26T03:27:41;94810.53;;;2.41;65.55
11415;BME280;5763;42.714;23.244;2023-01-26T03:30:09;94810.97;;;2.36;65.93
11415;BME280;5763;42.714;23.244;2023-01-26T03:32:38;94815.59;;;2.36;65.62
11415;BME280;5763;42.714;23.244;2023-01-26T03:35:05;94812.88;;;2.39;65.94
11415;BME280;5763;42.714;23.244;2023-01-26T03:37:34;94810.59;;;2.34;65.73
11415;BME280;5763;42.714;23.244;2023-01-26T03:40:09;94796.78;;;2.22;66.06
11415;BME280;5763;42.714;23.244;2023-01-26T03:42:54;94805.59;;;2.29;66.05
11415;BME280;5763;42.714;23.244;2023-01-26T03:45:38;94800.22;;;2.26;65.58
11415;BME280;5763;42.714;23.244;2023-01-26T03:48:23;94804.50;;;2.16;66.25
11415;BME280;5763;42.714;23.244;2023-01-26T03:51:08;94798.34;;;2.16;66.49
11415;BME280;5763;42.714;23.244;2023-01-26T03:53:53;94760.34;;;1.82;66.74
11415;BME280;5763;42.714;23.244;2023-01-26T03:56:37;94798.78;;;2.07;66.97
11415;BME280;5763;42.714;23.244;2023-01-26T03:59:05;94792.19;;;2.15;66.92
11415;BME280;5763;42.714;23.244;2023-01-26T04:01:34;94791.41;;;2.11;66.46
11415;BME280;5763;42.714;23.244;2023-01-26T04:04:03;94787.63;;;2.02;67.09
11415;BME280;5763;42.714;23.244;2023-01-26T04:06:48;94785.59;;;2.20;66.88
11415;BME280;5763;42.714;23.244;2023-01-26T04:09:33;94784.38;;;2.31;65.91
11415;BME280;5763;42.714;23.244;2023-01-26T04:12:00;94782.81;;;2.34;66.08
11415;BME280;5763;42.714;23.244;2023-01-26T04:14:27;94772.94;;;2.10;66.45
11415;BME280;5763;42.714;23.244;2023-01-26T04:17:11;94766.00;;;2.09;66.79
11415;BME280;5763;42.714;23.244;2023-01-26T04:19:57;94766.78;;;2.09;66.88
11415;BME280;5763;42.714;23.244;2023-01-26T04:22:41;94750.94;;;2.11;66.83
11415;BME280;5763;42.714;23.244;2023-01-26T04:25:10;94739.78;;;2.09;67.02
11415;BME280;5763;42.714;23.244;2023-01-26T04:27:38;94735.16;;;2.13;66.98
11415;BME280;5763;42.714;23.244;2023-01-26T04:30:07;94740.09;;;2.22;66.77
11415;BME280;5763;42.714;23.244;2023-01-26T04:32:34;94746.66;;;2.17;66.83
11415;BME280;5763;42.714;23.244;2023-01-26T04:35:03;94743.53;;;2.22;66.73
11415;BME280;5763;42.714;23.244;2023-01-26T04:37:31;94748.94;;;2.22;66.24
11415;BME280;5763;42.714;23.244;2023-01-26T04:39:58;94742.00;;;2.28;66.37
11415;BME280;5763;42.714;23.244;2023-01-26T04:42:25;94746.31;;;2.12;66.39
11415;BME280;5763;42.714;23.244;2023-01-26T04:44:52;94754.50;;;1.98;66.00
11415;BME280;5763;42.714;23.244;2023-01-26T04:47:20;94749.53;;;1.89;67.26
11415;BME280;5763;42.714;23.244;2023-01-26T04:49:46;94751.81;;;1.94;67.13
11415;BME280;5763;42.714;23.244;2023-01-26T04:52:15;94750.59;;;2.09;66.81
11415;BME280;5763;42.714;23.244;2023-01-26T04:54:42;94756.03;;;2.02;66.63
11415;BME280;5763;42.714;23.244;2023-01-26T04:57:08;94747.94;;;2.02;66.83
11415;BME280;5763;42.714;23.244;2023-01-26T04:59:35;94759.88;;;1.98;66.64
11415;BME280;5763;42.714;23.244;2023-01-26T05:02:02;94759.13;;;1.97;66.60
11415;BME280;5763;42.714;23.244;2023-01-26T05:04:29;94758.00;;;1.95;66.99
11415;BME280;5763;42.714;23.244;2023-01-26T05:06:57;94751.06;;;1.90;66.89
11415;BME280;5763;42.714;23.244;2023-01-26T05:09:25;94746.47;;;1.84;67.22
11415;BME280;5763;42.714;23.244;2023-01-26T05:11:52;94747.94;;;1.95;67.24
11415;BME280;5763;42.714;23.244;2023-01-26T05:14:18;94739.00;;;2.09;66.34
11415;BME280;5763;42.714;23.244;2023-01-26T05:16:45;94748.28;;;2.04;66.03
11415;BME280;5763;42.714;23.244;2023-01-26T05:19:12;94749.88;;;1.98;66.27
11415;BME280;5763;42.714;23.244;2023-01-26T05:21:39;94746.00;;;1.99;66.65
11415;BME280;5763;42.714;23.244;2023-01-26T05:24:06;94740.19;;;2.04;66.56
11415;BME280;5763;42.714;23.244;2023-01-26T05:26:35;94738.56;;;2.21;66.28
11415;BME280;5763;42.714;23.244;2023-01-26T05:29:01;94735.47;;;2.19;66.29
11415;BME280;5763;42.714;23.244;2023-01-26T05:31:28;94732.72;;;2.29;66.11
11415;BME280;5763;42.714;23.244;2023-01-26T05:33:55;94741.53;;;2.37;65.34
11415;BME280;5763;42.714;23.244;2023-01-26T05:36:22;94735.13;;;2.17;65.69
11415;BME280;5763;42.714;23.244;2023-01-26T05:38:48;94730.53;;;2.07;66.50
11415;BME280;5763;42.714;23.244;2023-01-26T05:41:15;94728.91;;;2.20;66.26
11415;BME280;5763;42.714;23.244;2023-01-26T05:43:43;94733.16;;;2.24;65.82
11415;BME280;5763;42.714;23.244;2023-01-26T05:46:10;94738.88;;;2.30;66.14
11415;BME280;5763;42.714;23.244;2023-01-26T05:48:37;94730.06;;;2.19;65.82
11415;BME280;5763;42.714;23.244;2023-01-26T05:51:03;94735.88;;;2.21;66.03
11415;BME280;5763;42.714;23.244;2023-01-26T05:53:30;94728.56;;;2.14;65.96
11415;BME280;5763;42.714;23.244;2023-01-26T05:55:57;94740.47;;;2.20;66.09
11415;BME280;5763;42.714;23.244;2023-01-26T05:58:24;94739.75;;;2.13;66.39
11415;BME280;5763;42.714;23.244;2023-01-26T06:00:52;94736.63;;;2.21;66.26
11415;BME280;5763;42.714;23.244;2023-01-26T06:03:18;94745.84;;;2.31;66.13
11415;BME280;5763;42.714;23.244;2023-01-26T06:05:51;94744.72;;;2.21;66.22
11415;BME280;5763;42.714;23.244;2023-01-26T06:08:18;94745.00;;;2.37;66.07
11415;BME280;5763;42.714;23.244;2023-01-26T06:10:45;94733.34;;;2.51;65.48
11415;BME280;5763;42.714;23.244;2023-01-26T06:13:11;94727.59;;;2.45;65.13
11415;BME280;5763;42.714;23.244;2023-01-26T06:15:38;94730.28;;;2.45;64.98
11415;BME280;5763;42.714;23.244;2023-01-26T06:18:06;94718.31;;;2.46;65.53
11415;BME280;5763;42.714;23.244;2023-01-26T06:20:33;94723.34;;;2.48;65.37
11415;BME280;5763;42.714;23.244;2023-01-26T06:23:00;94727.88;;;2.58;65.38
11415;BME280;5763;42.714;23.244;2023-01-26T06:25:26;94721.22;;;2.73;64.43
11415;BME280;5763;42.714;23.244;2023-01-26T06:27:56;94720.06;;;2.70;64.92
11415;BME280;5763;42.714;23.244;2023-01-26T06:30:23;94705.34;;;2.75;64.29
11415;BME280;5763;42.714;23.244;2023-01-26T06:32:49;94721.97;;;2.73;64.14
11415;BME280;5763;42.714;23.244;2023-01-26T06:35:18;94707.38;;;2.64;64.58
11415;BME280;5763;42.714;23.244;2023-01-26T06:37:47;94722.47;;;2.61;64.94
11415;BME280;5763;42.714;23.244;2023-01-26T06:40:14;94721.38;;;2.52;64.73
11415;BME280;5763;42.714;23.244;2023-01-26T06:42:46;94709.09;;;2.44;65.44
11415;BME280;5763;42.714;23.244;2023-01-26T06:45:13;94705.97;;;2.49;65.22
11415;BME280;5763;42.714;23.244;2023-01-26T06:47:43;94704.28;;;2.65;64.86
11415;BME280;5763;42.714;23.244;2023-01-26T06:50:10;94710.16;;;2.57;65.25
11415;BME280;5763;42.714;23.244;2023-01-26T06:52:40;94701.66;;;2.55;64.84
11415;BME280;5763;42.714;23.244;2023-01-26T06:55:15;94707.06;;;2.55;64.96
11415;BME280;5763;42.714;23.244;2023-01-26T06:57:42;94704.03;;;2.49;65.24
11415;BME280;5763;42.714;23.244;2023-01-26T07:00:11;94682.06;;;2.51;65.62
11415;BME280;5763;42.714;23.244;2023-01-26T07:02:38;94692.31;;;2.66;65.19
11415;BME280;5763;42.714;23.244;2023-01-26T07:05:06;94685.72;;;2.71;64.75
11415;BME280;5763;42.714;23.244;2023-01-26T07:07:33;94693.72;;;2.81;64.31
11415;BME280;5763;42.714;23.244;2023-01-26T07:10:01;94691.78;;;2.85;64.33
11415;BME280;5763;42.714;23.244;2023-01-26T07:12:37;94684.41;;;2.89;64.44
11415;BME280;5763;42.714;23.244;2023-01-26T07:15:05;94691.81;;;2.78;64.72
11415;BME280;5763;42.714;23.244;2023-01-26T07:17:32;94697.56;;;2.84;65.05
11415;BME280;5763;42.714;23.244;2023-01-26T07:19:58;94696.06;;;2.79;63.99
11415;BME280;5763;42.714;23.244;2023-01-26T07:22:25;94690.72;;;2.72;64.41
11415;BME280;5763;42.714;23.244;2023-01-26T07:24:52;94681.44;;;2.73;64.54
11415;BME280;5763;42.714;23.244;2023-01-26T07:27:20;94671.56;;;2.56;65.24
11415;BME280;5763;42.714;23.244;2023-01-26T07:29:46;94683.00;;;2.71;64.10
11415;BME280;5763;42.714;23.244;2023-01-26T07:32:14;94664.09;;;2.71;64.47
11415;BME280;5763;42.714;23.244;2023-01-26T07:34:41;94668.38;;;2.68;64.31
11415;BME280;5763;42.714;23.244;2023-01-26T07:37:08;94689.97;;;2.68;64.75
11415;BME280;5763;42.714;23.244;2023-01-26T07:39:34;94681.09;;;2.71;64.82
11415;BME280;5763;42.714;23.244;2023-01-26T07:42:01;94679.44;;;2.84;64.27
11415;BME280;5763;42.714;23.244;2023-01-26T07:44:29;94673.50;;;2.96;64.16
11415;BME280;5763;42.714;23.244;2023-01-26T07:46:56;94681.16;;;3.05;63.66
11415;BME280;5763;42.714;23.244;2023-01-26T07:49:23;94671.22;;;2.95;64.07
11415;BME280;5763;42.714;23.244;2023-01-26T07:51:50;94680.06;;;2.99;63.81
11415;BME280;5763;42.714;23.244;2023-01-26T07:54:18;94680.81;;;2.99;64.11
11415;BME280;5763;42.714;23.244;2023-01-26T07:56:50;94678.44;;;3.05;63.99
11415;BME280;5763;42.714;23.244;2023-01-26T07:59:16;94690.34;;;3.11;63.52
11415;BME280;5763;42.714;23.244;2023-01-26T08:01:45;94684.28;;;3.00;63.58
11415;BME280;5763;42.714;23.244;2023-01-26T08:04:11;94674.59;;;3.02;64.31
11415;BME280;5763;42.714;23.244;2023-01-26T08:06:38;94669.50;;;3.11;64.07
11415;BME280;5763;42.714;23.244;2023-01-26T08:09:05;94668.69;;;3.14;63.58
11415;BME280;5763;42.714;23.244;2023-01-26T08:11:32;94667.50;;;3.19;63.32
11415;BME280;5763;42.714;23.244;2023-01-26T08:13:59;94661.63;;;3.24;63.38
11415;BME280;5763;42.714;23.244;2023-01-26T08:16:25;94673.19;;;3.24;63.51
11415;BME280;5763;42.714;23.244;2023-01-26T08:18:54;94663.91;;;3.29;63.42
11415;BME280;5763;42.714;23.244;2023-01-26T08:21:20;94655.31;;;3.37;63.27
11415;BME280;5763;42.714;23.244;2023-01-26T08:23:48;94656.56;;;3.59;62.50
11415;BME280;5763;42.714;23.244;2023-01-26T08:26:16;94648.03;;;3.61;61.79
11415;BME280;5763;42.714;23.244;2023-01-26T08:28:43;94645.75;;;3.59;61.98
11415;BME280;5763;42.714;23.244;2023-01-26T08:31:11;94652.69;;;3.60;61.63
11415;BME280;5763;42.714;23.244;2023-01-26T08:33:40;94651.25;;;3.52;60.98
11415;BME280;5763;42.714;23.244;2023-01-26T08:36:10;94651.41;;;3.38;61.69
11415;BME280;5763;42.714;23.244;2023-01-26T08:38:38;94649.50;;;3.39;61.51
11415;BME280;5763;42.714;23.244;2023-01-26T08:41:05;94637.41;;;3.47;61.81
11415;BME280;5763;42.714;23.244;2023-01-26T08:43:32;94643.88;;;3.56;61.40
11415;BME280;5763;42.714;23.244;2023-01-26T08:45:59;94636.59;;;3.50;60.92
11415;BME280;5763;42.714;23.244;2023-01-26T08:48:26;94640.59;;;3.38;61.26
11415;BME280;5763;42.714;23.244;2023-01-26T08:50:56;94648.16;;;3.50;61.43
11415;BME280;5763;42.714;23.244;2023-01-26T08:53:25;94651.88;;;3.63;61.13
11415;BME280;5763;42.714;23.244;2023-01-26T08:55:52;94662.34;;;3.61;60.75
11415;BME280;5763;42.714;23.244;2023-01-26T08:58:19;94663.47;;;3.64;60.40
11415;BME280;5763;42.714;23.244;2023-01-26T09:00:46;94642.28;;;3.59;60.23
11415;BME280;5763;42.714;23.244;2023-01-26T09:03:13;94639.97;;;3.57;60.59
11415;BME280;5763;42.714;23.244;2023-01-26T09:05:40;94638.34;;;3.63;60.23
11415;BME280;5763;42.714;23.244;2023-01-26T09:08:08;94644.22;;;3.58;60.06
11415;BME280;5763;42.714;23.244;2023-01-26T09:10:37;94650.66;;;3.68;60.24
11415;BME280;5763;42.714;23.244;2023-01-26T09:13:04;94646.47;;;3.63;59.88
11415;BME280;5763;42.714;23.244;2023-01-26T09:15:31;94638.75;;;3.62;59.52
11415;BME280;5763;42.714;23.244;2023-01-26T09:17:58;94638.06;;;3.54;59.62
11415;BME280;5763;42.714;23.244;2023-01-26T09:20:25;94636.91;;;3.55;59.70
11415;BME280;5763;42.714;23.244;2023-01-26T09:22:51;94627.22;;;3.58;59.88
11415;BME280;5763;42.714;23.244;2023-01-26T09:25:18;94634.06;;;3.66;59.54
11415;BME280;5763;42.714;23.244;2023-01-26T09:27:47;94618.53;;;3.43;59.25
11415;BME280;5763;42.714;23.244;2023-01-26T09:30:14;94622.75;;;3.44;59.69
11415;BME280;5763;42.714;23.244;2023-01-26T09:32:41;94613.22;;;3.36;59.93
11415;BME280;5763;42.714;23.244;2023-01-26T09:35:08;94612.03;;;3.37;59.99
11415;BME280;5763;42.714;23.244;2023-01-26T09:37:36;94603.16;;;3.37;60.12
11415;BME280;5763;42.714;23.244;2023-01-26T09:40:04;94596.66;;;3.31;59.76
11415;BME280;5763;42.714;23.244;2023-01-26T09:42:40;94588.94;;;3.29;60.73
11415;BME280;5763;42.714;23.244;2023-01-26T09:45:19;94602.75;;;3.38;60.58
11415;BME280;5763;42.714;23.244;2023-01-26T09:48:02;94611.69;;;3.35;60.85
11415;BME280;5763;42.714;23.244;2023-01-26T09:50:37;94612.59;;;3.25;60.78
11415;BME280;5763;42.714;23.244;2023-01-26T09:53:12;94591.19;;;3.34;60.79
11415;BME280;5763;42.714;23.244;2023-01-26T09:55:40;94585.28;;;3.43;60.71
11415;BME280;5763;42.714;23.244;2023-01-26T09:58:14;94581.50;;;3.40;60.55
11415;BME280;5763;42.714;23.244;2023-01-26T10:00:46;94584.13;;;3.44;60.56
11415;BME280;5763;42.714;23.244;2023-01-26T10:03:21;94594.00;;;3.57;60.80
11415;BME280;5763;42.714;23.244;2023-01-26T10:05:54;94583.91;;;3.61;60.29
11415;BME280;5763;42.714;23.244;2023-01-26T10:08:23;94580.78;;;3.63;60.26
11415;BME280;5763;42.714;23.244;2023-01-26T10:10:53;94569.53;;;3.64;60.15
11415;BME280;5763;42.714;23.244;2023-01-26T10:13:22;94580.31;;;3.68;60.58
11415;BME280;5763;42.714;23.244;2023-01-26T10:15:53;94574.75;;;3.78;60.04
11415;BME280;5763;42.714;23.244;2023-01-26T10:18:26;94566.03;;;3.67;60.15
11415;BME280;5763;42.714;23.244;2023-01-26T10:20:57;94550.94;;;3.70;59.98
11415;BME280;5763;42.714;23.244;2023-01-26T10:23:27;94547.44;;;3.69;60.00
11415;BME280;5763;42.714;23.244;2023-01-26T10:26:00;94527.78;;;3.65;60.10
11415;BME280;5763;42.714;23.244;2023-01-26T10:28:32;94518.97;;;3.61;60.59
11415;BME280;5763;42.714;23.244;2023-01-26T10:31:01;94502.19;;;3.47;60.58
11415;BME280;5763;42.714;23.244;2023-01-26T10:33:31;94508.72;;;3.49;60.29
11415;BME280;5763;42.714;23.244;2023-01-26T10:35:58;94509.84;;;3.52;60.68
11415;BME280;5763;42.714;23.244;2023-01-26T10:38:27;94514.31;;;3.62;60.91
11415;BME280;5763;42.714;23.244;2023-01-26T10:40:54;94486.41;;;3.68;60.54
11415;BME280;5763;42.714;23.244;2023-01-26T10:43:23;94481.78;;;3.65;59.67
11415;BME280;5763;42.714;23.244;2023-01-26T10:45:50;94482.69;;;3.59;60.32
11415;BME280;5763;42.714;23.244;2023-01-26T10:48:19;94471.75;;;3.66;60.12
11415;BME280;5763;42.714;23.244;2023-01-26T10:50:49;94467.94;;;3.63;60.84
11415;BME280;5763;42.714;23.244;2023-01-26T10:53:21;94472.81;;;3.72;60.34
11415;BME280;5763;42.714;23.244;2023-01-26T10:55:58;94472.41;;;3.73;60.18
11415;BME280;5763;42.714;23.244;2023-01-26T10:58:42;94464.09;;;3.61;60.21
11415;BME280;5763;42.714;23.244;2023-01-26T11:01:11;94453.22;;;3.64;60.69
11415;BME280;5763;42.714;23.244;2023-01-26T11:03:41;94437.47;;;3.59;59.92
11415;BME280;5763;42.714;23.244;2023-01-26T11:06:14;94440.28;;;3.52;60.78
11415;BME280;5763;42.714;23.244;2023-01-26T11:08:41;94423.19;;;3.59;60.39
11415;BME280;5763;42.714;23.244;2023-01-26T11:11:23;94420.06;;;3.60;60.53
11415;BME280;5763;42.714;23.244;2023-01-26T11:14:09;94420.00;;;3.64;60.81
11415;BME280;5763;42.714;23.244;2023-01-26T11:16:36;94415.00;;;3.62;60.69
11415;BME280;5763;42.714;23.244;2023-01-26T11:19:10;94418.53;;;3.59;60.92
11415;BME280;5763;42.714;23.244;2023-01-26T11:21:40;94419.41;;;3.76;60.29
11415;BME280;5763;42.714;23.244;2023-01-26T11:24:14;94414.78;;;3.76;60.24
11415;BME280;5763;42.714;23.244;2023-01-26T11:27:15;94405.09;;;3.75;60.41
11415;BME280;5763;42.714;23.244;2023-01-26T11:30:09;94397.44;;;3.74;60.66
11415;BME280;5763;42.714;23.244;2023-01-26T11:32:45;94395.88;;;3.73;60.57
11415;BME280;5763;42.714;23.244;2023-01-26T11:35:28;94394.59;;;3.81;60.15
11415;BME280;5763;42.714;23.244;2023-01-26T11:38:00;94387.25;;;3.81;60.54
11415;BME280;5763;42.714;23.244;2023-01-26T11:40:40;94381.28;;;3.90;60.17
11415;BME280;5763;42.714;23.244;2023-01-26T11:43:25;94374.28;;;3.92;60.30
11415;BME280;5763;42.714;23.244;2023-01-26T11:46:07;94381.16;;;4.16;60.19
11415;BME280;5763;42.714;23.244;2023-01-26T11:48:47;94370.06;;;4.30;59.95
11415;BME280;5763;42.714;23.244;2023-01-26T11:51:26;94372.00;;;4.30;59.76
11415;BME280;5763;42.714;23.244;2023-01-26T11:54:10;94384.16;;;4.41;59.80
11415;BME280;5763;42.714;23.244;2023-01-26T11:56:47;94378.25;;;4.27;59.52
11415;BME280;5763;42.714;23.244;2023-01-26T11:59:16;94368.59;;;4.06;60.34
11415;BME280;5763;42.714;23.244;2023-01-26T12:01:47;94373.22;;;3.86;60.42
11415;BME280;5763;42.714;23.244;2023-01-26T12:04:18;94366.09;;;3.96;60.59
11415;BME280;5763;42.714;23.244;2023-01-26T12:06:48;94348.47;;;4.07;60.78
11415;BME280;5763;42.714;23.244;2023-01-26T12:09:21;94346.31;;;3.99;61.15
11415;BME280;5763;42.714;23.244;2023-01-26T12:11:52;94337.66;;;4.07;60.79
11415;BME280;5763;42.714;23.244;2023-01-26T12:14:24;94333.34;;;4.10;61.04
11415;BME280;5763;42.714;23.244;2023-01-26T12:17:01;94339.50;;;4.10;60.79
11415;BME280;5763;42.714;23.244;2023-01-26T12:19:38;94336.25;;;4.19;61.32
11415;BME280;5763;42.714;23.244;2023-01-26T12:22:14;94328.56;;;4.17;60.75
11415;BME280;5763;42.714;23.244;2023-01-26T12:24:49;94320.91;;;4.12;60.81
11415;BME280;5763;42.714;23.244;2023-01-26T12:27:22;94313.22;;;4.11;61.41
11415;BME280;5763;42.714;23.244;2023-01-26T12:29:53;94316.41;;;4.06;61.86
11415;BME280;5763;42.714;23.244;2023-01-26T12:32:22;94295.50;;;4.06;61.53
11415;BME280;5763;42.714;23.244;2023-01-26T12:34:50;94302.09;;;4.25;61.36
11415;BME280;5763;42.714;23.244;2023-01-26T12:37:34;94296.81;;;4.18;61.15
11415;BME280;5763;42.714;23.244;2023-01-26T12:40:13;94291.47;;;4.14;62.02
11415;BME280;5763;42.714;23.244;2023-01-26T12:42:46;94299.88;;;4.00;62.66
11415;BME280;5763;42.714;23.244;2023-01-26T12:45:19;94310.00;;;3.96;63.04
11415;BME280;5763;42.714;23.244;2023-01-26T12:47:49;94298.03;;;3.97;63.15
11415;BME280;5763;42.714;23.244;2023-01-26T12:50:25;94297.94;;;4.01;62.93
11415;BME280;5763;42.714;23.244;2023-01-26T12:52:56;94292.66;;;4.13;62.20
11415;BME280;5763;42.714;23.244;2023-01-26T12:55:29;94300.78;;;4.13;62.17
11415;BME280;5763;42.714;23.244;2023-01-26T12:58:01;94290.25;;;3.99;62.89
11415;BME280;5763;42.714;23.244;2023-01-26T13:00:30;94288.06;;;4.10;62.50
11415;BME280;5763;42.714;23.244;2023-01-26T13:03:00;94288.56;;;4.05;62.72
11415;BME280;5763;42.714;23.244;2023-01-26T13:05:34;94275.81;;;4.06;63.10
11415;BME280;5763;42.714;23.244;2023-01-26T13:11:10;94285.66;;;3.96;63.43
11415;BME280;5763;42.714;23.244;2023-01-26T13:13:58;94288.78;;;3.95;63.67
11415;BME280;5763;42.714;23.244;2023-01-26T13:16:33;94288.03;;;3.94;63.95
11415;BME280;5763;42.714;23.244;2023-01-26T13:19:00;94288.66;;;3.82;64.50
11415;BME280;5763;42.714;23.244;2023-01-26T13:21:31;94284.34;;;3.85;64.10
11415;BME280;5763;42.714;23.244;2023-01-26T13:27:26;94273.25;;;3.79;65.11
11415;BME280;5763;42.714;23.244;2023-01-26T13:29:54;94274.84;;;3.77;65.19
11415;BME280;5763;42.714;23.244;2023-01-26T13:33:01;94262.09;;;3.77;65.77